Latest Weather Observations for Nhill Aerodrome

IDV60801

Issued at 3:03 am EST Tuesday 26 September 2017 (issued every 30 minutes, with the page automatically refreshed every 10 minutes)

About weather observations | Map of weather stations | Latest weather observations for VIC | Other Formats
Station Details ID: 078015 Name: NHILL AERODROME Lat: -36.31 Lon: 141.65 Height: 138.9 m
Data from the previous 72 hours. | See also: Recent months at Nhill Aerodrome
Date/Time
EST
Temp
°C
App
Temp
°C
Dew
Point
°C
Rel
Hum
%
Delta-T
°C
Wind Press
QNH
hPa
Press
MSL
hPa
Rain since
9am
mm
Dir  Spd
km/h
Gust
km/h
Spd
kts
Gust
kts
26/03:00am 2.5 0.7 1.2 91 0.5 CALM 0 0 0 0 1017.0 1017.0 0.0
26/02:30am 3.4 1.7 1.9 90 0.6 CALM 0 0 0 0 1016.8 1016.8 0.0
26/02:00am 3.8 1.0 2.3 90 0.6 SSE 6 7 3 4 1016.9 1016.9 0.0
26/01:30am 4.0 1.1 2.4 89 0.6 SSE 7 9 4 5 1017.0 1017.0 0.0
26/01:00am 4.4 1.2 2.8 89 0.7 SSE 9 9 5 5 1017.0 1017.0 0.0
26/12:30am 4.1 0.8 2.3 88 0.7 SSE 9 11 5 6 1016.9 1016.9 0.0
26/12:00am 4.6 1.3 2.6 87 0.8 SSE 9 11 5 6 1016.8 1016.8 0.0
 
Date/Time
EST
Temp
°C
App
Temp
°C
Dew
Point
°C
Rel
Hum
%
Delta-T
°C
Wind Press
QNH
hPa
Press
MSL
hPa
Rain since
9am
mm
Dir  Spd
km/h
Gust
km/h
Spd
kts
Gust
kts
25/11:30pm 4.5 0.4 2.5 87 0.8 SSE 13 13 7 7 1016.5 1016.5 0.0
25/11:00pm 5.7 1.8 3.5 86 0.9 S 13 15 7 8 1016.5 1016.5 0.0
25/10:30pm 5.6 1.3 3.4 86 0.9 S 15 15 8 8 1016.2 1016.2 0.0
25/10:00pm 6.4 3.8 4.1 85 1.0 SSW 7 9 4 5 1016.4 1016.4 0.0
25/09:30pm 6.1 2.3 3.8 85 1.0 SSW 13 15 7 8 1016.3 1016.3 0.0
25/09:00pm 6.8 3.8 4.1 83 1.2 SSW 9 11 5 6 1016.1 1016.1 0.0
25/08:30pm 7.8 4.9 4.9 82 1.3 SSW 9 11 5 6 1015.8 1015.8 0.0
25/08:00pm 8.5 5.0 5.4 81 1.4 SSW 13 15 7 8 1015.4 1015.4 0.0
25/07:30pm 9.6 6.2 6.0 78 1.7 SW 13 15 7 8 1014.8 1014.8 0.0
25/07:00pm 10.3 7.0 6.3 76 1.9 SW 13 15 7 8 1014.4 1014.4 0.0
25/06:30pm 11.7 8.1 6.8 72 2.4 SW 15 17 8 9 1014.1 1014.1 0.0
25/06:00pm 13.7 9.4 6.8 63 3.4 SW 19 24 10 13 1013.6 1013.6 0.0
25/05:30pm 15.0 10.5 6.8 58 4.0 SW 20 26 11 14 1013.2 1013.2 0.0
25/05:00pm 16.2 10.9 6.9 54 4.6 WSW 24 32 13 17 1012.8 1012.9 0.0
25/04:30pm 16.2 11.2 6.3 52 4.9 WSW 22 30 12 16 1012.6 1012.7 0.0
25/04:00pm 15.8 10.3 6.0 52 4.8 WSW 24 33 13 18 1012.5 1012.6 0.0
25/03:30pm 16.0 10.0 5.3 49 5.1 WSW 26 37 14 20 1012.3 1012.4 0.0
25/03:00pm 16.8 11.8 8.2 57 4.4 W 24 32 13 17 1012.3 1012.4 0.0
25/02:30pm 15.9 10.7 7.1 56 4.4 WSW 24 46 13 25 1012.2 1012.3 0.0
25/02:29pm 16.1 11.1 6.5 53 4.7 WSW 22 46 12 25 1012.1 1012.2 0.0
25/02:00pm 15.8 9.9 7.3 57 4.2 SW 28 37 15 20 1012.2 1012.3 0.0
25/01:30pm 15.7 10.8 7.0 56 4.3 SW 22 32 12 17 1012.2 1012.3 0.0
25/01:00pm 16.0 10.7 7.0 55 4.5 W 24 33 13 18 1012.1 1012.2 0.0
25/12:30pm 15.6 10.9 6.1 53 4.6 W 20 30 11 16 1012.3 1012.4 0.0
25/12:00pm 15.0 10.3 7.8 62 3.6 WSW 22 32 12 17 1012.3 1012.4 0.0
25/11:30am 13.9 9.0 7.0 63 3.4 WSW 22 30 12 16 1012.3 1012.4 0.0
25/11:00am 14.3 10.1 7.6 64 3.3 WSW 19 30 10 16 1012.3 1012.4 0.0
25/10:30am 12.6 8.2 7.3 70 2.6 SW 20 28 11 15 1012.0 1012.1 0.0
25/10:00am 12.6 8.2 7.5 71 2.5 WSW 20 28 11 15 1011.8 1011.9 0.0
25/09:30am 12.3 8.4 8.6 78 1.9 WSW 19 24 10 13 1011.7 1011.8 0.0
25/09:00am 12.0 8.1 9.4 84 1.3 WSW 20 28 11 15 1011.5 1011.6 1.2
25/08:30am 10.2 6.9 9.6 96 0.3 WNW 17 24 9 13 1011.1 1011.1 1.2
25/08:00am 9.6 6.6 9.1 97 0.2 WNW 15 20 8 11 1010.7 1010.7 1.2
25/07:30am 8.9 5.3 8.5 97 0.2 NW 17 20 9 11 1010.3 1010.3 1.2
25/07:00am 8.2 5.9 7.6 96 0.3 NW 9 13 5 7 1009.7 1009.7 1.2
25/06:30am 7.9 5.6 7.3 96 0.3 NW 9 13 5 7 1009.1 1009.1 1.2
25/06:00am 8.7 6.2 8.1 96 0.3 W 11 15 6 8 1008.5 1008.5 1.2
25/05:30am 9.5 6.0 8.9 96 0.3 W 17 20 9 11 1008.1 1008.1 1.2
25/05:00am 9.5 5.6 8.7 95 0.4 WNW 19 22 10 12 1007.9 1007.9 1.2
25/04:30am 9.9 6.1 9.1 95 0.4 WNW 19 26 10 14 1007.7 1007.7 1.2
25/04:00am 9.9 6.5 9.1 95 0.4 WNW 17 20 9 11 1007.5 1007.5 1.2
25/03:30am 10.1 6.7 9.3 95 0.4 WNW 17 20 9 11 1007.2 1007.2 1.2
25/03:00am 10.1 6.7 9.3 95 0.4 WNW 17 24 9 13 1007.1 1007.1 1.2
25/02:30am 9.9 6.5 9.1 95 0.4 WNW 17 22 9 12 1007.1 1007.1 1.2
25/02:00am 9.7 7.0 8.9 95 0.4 WNW 13 17 7 9 1007.3 1007.3 1.2
25/01:30am 9.9 5.9 9.0 94 0.4 WNW 20 28 11 15 1007.6 1007.6 1.2
25/01:00am 10.2 5.9 9.3 94 0.5 WNW 22 28 12 15 1007.4 1007.4 1.2
25/12:30am 10.2 7.2 9.3 94 0.5 WNW 15 22 8 12 1007.3 1007.3 1.0
25/12:00am 10.2 6.8 9.3 94 0.5 WNW 17 24 9 13 1007.2 1007.2 1.0
 
Date/Time
EST
Temp
°C
App
Temp
°C
Dew
Point
°C
Rel
Hum
%
Delta-T
°C
Wind Press
QNH
hPa
Press
MSL
hPa
Rain since
9am
mm
Dir  Spd
km/h
Gust
km/h
Spd
kts
Gust
kts
24/11:30pm 10.4 7.0 9.3 93 0.6 WNW 17 28 9 15 1007.2 1007.2 1.0
24/11:00pm 10.9 7.1 9.7 92 0.6 WNW 20 32 11 17 1007.0 1007.0 0.6
24/10:30pm 10.7 7.0 9.6 93 0.6 WNW 19 30 10 16 1006.9 1006.9 0.6
24/10:00pm 10.5 6.6 9.3 92 0.6 WNW 20 30 11 16 1006.7 1006.7 0.6
24/09:30pm 10.7 5.7 9.5 92 0.6 WNW 26 39 14 21 1006.4 1006.4 0.6
24/09:00pm 10.9 5.9 9.5 91 0.7 WNW 26 35 14 19 1006.2 1006.2 0.6
24/08:30pm 11.6 6.7 8.5 81 1.5 WNW 24 37 13 20 1005.7 1005.7 0.0
24/08:00pm 12.1 6.7 8.2 77 1.9 WNW 26 43 14 23 1005.1 1005.1 0.0
24/07:30pm 12.5 6.4 8.4 76 2.0 WNW 30 41 16 22 1004.6 1004.6 0.0
24/07:00pm 12.2 6.4 8.1 76 2.0 WNW 28 39 15 21 1004.0 1004.0 0.0
24/06:30pm 11.9 7.3 8.2 78 1.8 WNW 22 35 12 19 1003.5 1003.5 0.0
24/06:04pm 12.3 5.8 9.0 80 1.7 WNW 33 52 18 28 1003.3 1003.3 0.0
24/06:00pm 12.2 4.2 9.0 81 1.6 WNW 41 54 22 29 1003.3 1003.3 0.0
24/05:42pm 13.1 5.0 8.6 74 2.3 W 41 61 22 33 1003.1 1003.1 0.0
24/05:30pm 14.4 7.5 7.2 62 3.6 WNW 33 48 18 26 1002.6 1002.6 0.0
24/05:00pm 14.5 6.1 7.3 62 3.6 WNW 41 52 22 28 1002.0 1002.0 0.0
24/04:33pm 15.9 7.9 5.8 51 4.9 WNW 37 56 20 30 1001.3 1001.3 0.0
24/04:30pm 16.0 7.6 5.6 50 5.0 WNW 39 56 21 30 1001.2 1001.2 0.0
24/04:00pm 16.1 5.9 5.4 49 5.2 WNW 48 61 26 33 1001.2 1001.2 0.0
24/03:30pm 16.3 7.3 4.7 46 5.5 WNW 41 63 22 34 1001.0 1001.0 0.0
24/03:02pm 16.3 7.8 5.3 48 5.3 WNW 39 57 21 31 1001.2 1001.2 0.0
24/03:00pm 16.3 7.4 5.0 47 5.4 WNW 41 57 22 31 1001.2 1001.2 0.0
24/02:30pm 16.8 7.8 4.5 44 5.8 WNW 41 59 22 32 1001.3 1001.3 0.0
24/02:10pm 17.5 8.2 5.1 44 6.0 WNW 43 61 23 33 1001.2 1001.2 0.0
24/02:00pm 16.5 6.7 3.6 42 6.0 WNW 44 61 24 33 1001.1 1001.1 0.0
24/01:30pm 16.8 6.4 2.0 37 6.7 WNW 46 70 25 38 1000.9 1000.9 0.0
24/01:03pm 16.6 7.1 4.0 43 5.9 WNW 43 61 23 33 1001.1 1001.1 0.0
24/01:00pm 16.6 7.0 4.3 44 5.8 WNW 44 59 24 32 1001.1 1001.1 0.0
24/12:30pm 16.3 7.8 5.0 47 5.4 WNW 39 57 21 31 1001.3 1001.3 0.0
24/12:00pm 16.0 6.2 5.3 49 5.2 WNW 46 65 25 35 1001.4 1001.4 0.0
24/11:36am 15.5 7.7 6.5 55 4.4 WNW 37 56 20 30 1001.6 1001.6 0.0
24/11:30am 16.1 8.0 6.8 54 4.6 WNW 39 56 21 30 1001.6 1001.6 0.0
24/11:03am 15.0 6.5 6.8 58 4.0 WNW 41 59 22 32 1001.5 1001.5 0.0
24/11:00am 14.9 6.7 6.5 57 4.1 NW 39 54 21 29 1001.5 1001.5 0.0
24/10:30am 15.0 7.3 7.3 60 3.8 WNW 37 50 20 27 1001.7 1001.7 0.0
24/10:15am 14.5 7.6 7.3 62 3.6 WNW 33 52 18 28 1001.8 1001.8 0.0
24/10:00am 13.6 7.6 8.7 72 2.5 NW 30 41 16 22 1001.8 1001.8 0.0
24/09:30am 12.7 4.9 8.2 74 2.2 WNW 39 61 21 33 1001.8 1001.8 0.0
24/09:18am 13.1 7.0 8.4 73 2.4 NW 30 50 16 27 1001.7 1001.7 0.0
24/09:00am 13.1 7.1 8.6 74 2.3 WNW 30 44 16 24 1001.6 1001.6 1.2
24/08:30am 11.6 6.0 8.8 83 1.4 NW 28 39 15 21 1001.8 1001.8 1.2
24/08:00am 10.2 5.3 8.5 89 0.8 NNW 24 32 13 17 1001.6 1001.6 1.2
24/07:30am 8.8 4.0 7.4 91 0.7 NNW 22 30 12 16 1001.4 1001.4 1.2
24/07:00am 8.2 4.3 7.0 92 0.6 NNW 17 24 9 13 1001.1 1001.1 1.2
24/06:30am 8.1 3.7 6.7 91 0.7 N 19 26 10 14 1000.9 1000.9 1.2
24/06:00am 8.2 4.2 6.8 91 0.7 NNW 17 22 9 12 1000.7 1000.7 1.2
24/05:30am 8.8 4.3 7.1 89 0.8 NW 20 28 11 15 1000.5 1000.5 1.2
24/05:00am 8.6 4.1 7.1 90 0.7 NNW 20 28 11 15 1000.3 1000.3 1.2
24/04:30am 8.7 4.2 6.8 88 0.9 NW 20 28 11 15 1000.3 1000.3 1.2
24/04:00am 9.0 4.2 7.3 89 0.8 NW 22 30 12 16 1000.0 1000.0 1.2
24/03:30am 9.4 5.6 7.7 89 0.8 NNW 17 22 9 12 999.8 999.8 1.2
24/03:00am 10.2 5.3 8.3 88 0.9 WNW 24 37 13 20 1000.4 1000.4 1.2
24/02:38am 10.4 4.4 8.7 89 0.8 W 30 50 16 27 1001.7 1001.7 1.0
24/02:36am 10.4 5.2 8.8 90 0.8 WNW 26 46 14 25 1001.7 1001.7 0.8
24/02:30am 10.3 6.2 8.6 89 0.8 NW 20 28 11 15 1001.5 1001.5 0.2
24/02:00am 9.8 6.5 8.2 90 0.8 NNW 15 20 8 11 1001.2 1001.2 0.0
24/01:30am 9.8 6.5 8.2 90 0.8 NNW 15 20 8 11 1001.8 1001.8 0.0
24/01:00am 9.6 6.3 7.9 89 0.8 NNW 15 17 8 9 1002.1 1002.1 0.0
24/12:30am 10.0 6.7 8.1 88 0.9 NW 15 17 8 9 1002.3 1002.3 0.0
24/12:00am 10.1 7.2 8.2 88 0.9 NNW 13 17 7 9 1002.3 1002.3 0.0
 
Date/Time
EST
Temp
°C
App
Temp
°C
Dew
Point
°C
Rel
Hum
%
Delta-T
°C
Wind Press
QNH
hPa
Press
MSL
hPa
Rain since
9am
mm
Dir  Spd
km/h
Gust
km/h
Spd
kts
Gust
kts
23/11:30pm 9.8 6.8 7.6 86 1.1 NW 13 17 7 9 1002.3 1002.3 0.0
23/11:00pm 10.6 6.8 7.5 81 1.5 NW 17 20 9 11 1002.5 1002.5 0.0
23/10:30pm 10.7 6.9 7.6 81 1.5 NW 17 20 9 11 1002.5 1002.5 0.0
23/10:00pm 11.3 8.0 8.2 81 1.5 WNW 15 20 8 11 1002.4 1002.4 0.0
23/09:30pm 11.9 8.0 8.6 80 1.6 WNW 19 26 10 14 1002.2 1002.2 0.0
23/09:00pm 13.0 7.8 8.7 75 2.2 W 26 35 14 19 1002.1 1002.1 0.0
23/08:30pm 13.2 9.3 9.3 77 2.0 W 20 32 11 17 1001.9 1001.9 0.0
23/08:00pm 13.3 9.0 9.4 77 2.0 W 22 32 12 17 1001.6 1001.6 0.0
23/07:30pm 14.1 9.2 6.7 61 3.6 W 22 32 12 17 1000.8 1000.8 0.0
23/07:00pm 15.7 8.1 5.6 51 4.9 WNW 35 50 19 27 1000.1 1000.1 0.0
23/06:30pm 16.1 9.2 7.3 56 4.4 W 33 43 18 23 999.8 999.8 0.0
23/06:15pm 16.5 8.4 6.9 53 4.8 WNW 39 57 21 31 999.6 999.6 0.0
23/06:00pm 17.0 8.0 6.2 49 5.4 WNW 43 57 23 31 999.3 999.3 0.0
23/05:31pm 18.0 8.4 6.2 46 5.9 WNW 46 69 25 37 998.8 998.7 0.0
23/05:30pm 18.0 8.4 6.2 46 5.9 WNW 46 59 25 32 998.9 998.8 0.0
23/05:00pm 19.0 8.4 6.8 45 6.2 W 52 70 28 38 997.9 997.9 0.0
23/04:44pm 19.4 9.7 9.0 51 5.5 W 50 74 27 40 997.6 997.6 0.0
23/04:30pm 19.9 10.7 9.5 51 5.6 W 48 61 26 33 997.2 997.2 0.0
23/04:00pm 21.1 11.2 8.4 44 6.8 W 50 72 27 39 996.3 996.3 0.0
23/03:30pm 22.1 11.6 8.9 43 7.1 W 54 76 29 41 995.7 995.7 0.0
23/03:01pm 23.0 11.6 7.5 37 8.1 W 57 82 31 44 995.0 995.0 0.0
23/03:00pm 23.0 11.8 7.5 37 8.2 W 56 72 30 39 995.1 995.1 0.0
23/02:44pm 23.9 13.0 9.5 40 7.9 W 57 76 31 41 994.5 994.5 0.0
23/02:30pm 24.4 13.4 9.2 38 8.3 W 57 72 31 39 994.1 994.1 0.0
23/02:00pm 25.9 14.8 8.0 32 9.7 WNW 56 83 30 45 993.6 993.6 0.0
23/01:30pm 26.6 15.7 7.1 29 10.4 WNW 54 76 29 41 992.8 992.7 0.0
23/01:26pm 26.7 16.6 7.2 29 10.4 WNW 50 76 27 41 992.9 992.8 0.0
23/01:00pm 26.9 18.6 6.3 27 10.9 WNW 39 61 21 33 992.6 992.5 0.0
23/12:30pm 27.2 19.1 7.1 28 10.7 WNW 39 59 21 32 992.8 992.7 0.0
23/12:00pm 27.5 18.7 5.7 25 11.5 WNW 41 63 22 34 992.8 992.7 0.0
23/11:30am 27.4 18.3 3.8 22 11.9 NW 41 59 22 32 992.3 992.2 0.0
23/11:16am 27.2 20.9 5.5 25 11.3 NW 28 46 15 25 992.6 992.5 0.0
23/11:00am 25.1 22.6 9.8 38 8.5 N 13 26 7 14 992.9 992.8 0.0
23/10:30am 23.2 21.3 10.6 45 7.0 NNE 11 19 6 10 993.3 993.3 0.0
23/10:00am 21.0 19.3 11.1 53 5.5 NE 11 17 6 9 994.0 994.0 0.0
23/09:30am 19.5 16.6 11.0 58 4.7 NE 17 24 9 13 994.2 994.2 0.0
23/09:00am 18.1 15.1 10.7 62 4.0 ENE 17 20 9 11 994.6 994.6 0.0
23/08:30am 16.3 12.7 9.9 66 3.4 ENE 19 22 10 12 995.0 995.0 0.0
23/08:00am 15.2 11.5 9.6 69 2.9 E 19 24 10 13 995.5 995.5 0.0
23/07:30am 13.5 10.4 9.0 74 2.3 E 15 19 8 10 996.4 996.4 0.0
23/07:00am 11.3 9.5 7.8 79 1.7 S 7 17 4 9 997.2 997.2 0.0
23/06:30am 11.2 8.3 8.1 81 1.5 E 13 17 7 9 997.0 997.0 0.0
23/06:00am 12.3 9.3 7.8 74 2.2 E 13 15 7 8 997.5 997.5 0.0
23/05:30am 13.4 11.4 8.5 72 2.5 SE 9 15 5 8 998.3 998.2 0.0
23/05:00am 15.2 11.1 8.0 62 3.7 WSW 19 30 10 16 999.4 999.4 0.0
23/04:49am 13.9 11.2 8.9 72 2.5 WSW 13 37 7 20 1000.0 1000.0 0.0
23/04:30am 13.4 11.8 8.9 74 2.3 SW 7 11 4 6 998.8 998.7 0.0
23/04:00am 13.9 12.3 8.7 71 2.7 ENE 7 13 4 7 998.4 998.3 0.0
23/03:30am 14.9 12.4 8.2 64 3.4 NNE 11 17 6 9 998.7 998.6 0.0

Other Formats:

Comma delimited format used in spreadsheet applications
http://www.bom.gov.au/fwo/IDV60801/IDV60801.94827.axf

JavaScript Object Notation format (JSON) in row-major order
http://www.bom.gov.au/fwo/IDV60801/IDV60801.94827.json